Time,TemperatureF,DewpointF,PressureIn,WindDirection,WindDirectionDegrees,WindSpeedMPH,WindSpeedGustMPH,Humidity,HourlyPrecipIn,Conditions,Clouds,dailyrainin,SoftwareType,DateUTC
2013-01-21 00:00:00,31.0,16.3,29.93,NW,315,16.0,27.0,54,0.00,,SKC,0.00,VWS V13.01,2013-01-21 05:00:00,
2013-01-21 00:10:00,30.7,16.5,29.93,NW,315,16.0,28.0,55,0.00,,SKC,0.00,VWS V13.01,2013-01-21 05:10:00,
2013-01-21 00:20:00,30.6,16.4,29.94,NW,315,16.0,27.0,55,0.00,,SKC,0.00,VWS V13.01,2013-01-21 05:20:00,
2013-01-21 00:30:00,30.6,16.4,29.94,NW,315,15.0,26.0,55,0.00,,SKC,0.00,VWS V13.01,2013-01-21 05:30:00,
2013-01-21 00:40:00,30.3,16.5,29.95,NW,315,16.0,23.0,56,0.00,,SKC,0.00,VWS V13.01,2013-01-21 05:40:00,
2013-01-21 00:50:00,30.0,15.8,29.95,NW,315,17.0,27.0,55,0.00,,SKC,0.00,VWS V13.01,2013-01-21 05:50:00,
2013-01-21 01:00:00,29.8,16.0,29.95,NW,315,14.0,23.0,56,0.00,,SKC,0.00,VWS V13.01,2013-01-21 06:00:00,
2013-01-21 01:10:00,29.7,15.9,29.96,NW,315,14.0,23.0,56,0.00,,SKC,0.00,VWS V13.01,2013-01-21 06:10:00,
2013-01-21 01:20:00,29.7,15.1,29.96,NW,315,15.0,25.0,54,0.00,,SKC,0.00,VWS V13.01,2013-01-21 06:20:00,
2013-01-21 01:30:00,29.7,14.7,29.97,NW,315,16.0,24.0,53,0.00,,SKC,0.00,VWS V13.01,2013-01-21 06:30:00,
2013-01-21 01:40:00,29.6,13.7,29.97,NW,315,17.0,32.0,51,0.00,,SKC,0.00,VWS V13.01,2013-01-21 06:40:00,
2013-01-21 01:50:00,29.4,13.5,29.98,NW,315,17.0,29.0,51,0.00,,SKC,0.00,VWS V13.01,2013-01-21 06:50:00,
2013-01-21 02:10:00,29.2,13.3,29.99,NW,315,14.0,24.0,51,0.00,,SKC,0.00,VWS V13.01,2013-01-21 07:10:00,
2013-01-21 02:20:00,28.9,13.1,29.99,NW,315,14.0,25.0,51,0.00,,SKC,0.00,VWS V13.01,2013-01-21 07:20:00,
2013-01-21 02:30:00,28.9,12.1,29.99,NW,315,17.0,26.0,49,0.00,,SKC,0.00,VWS V13.01,2013-01-21 07:30:00,
2013-01-21 02:40:00,28.7,12.9,29.99,NW,315,13.0,19.0,51,0.00,,SKC,0.00,VWS V13.01,2013-01-21 07:40:00,
2013-01-21 02:50:00,28.6,13.2,29.99,WNW,292,10.0,17.0,52,0.00,,SKC,0.00,VWS V13.01,2013-01-21 07:50:00,
2013-01-21 03:00:00,28.5,13.6,30.00,WNW,292,10.0,20.0,53,0.00,,SKC,0.00,VWS V13.01,2013-01-21 08:00:00,
2013-01-21 03:10:00,28.4,13.0,30.00,WNW,292,11.0,17.0,52,0.00,,SKC,0.00,VWS V13.01,2013-01-21 08:10:00,
2013-01-21 03:20:00,28.3,12.9,30.00,NW,315,13.0,24.0,52,0.00,,SKC,0.00,VWS V13.01,2013-01-21 08:20:00,
2013-01-21 03:30:00,28.1,11.9,30.00,NW,315,14.0,23.0,50,0.00,,SKC,0.00,VWS V13.01,2013-01-21 08:30:00,
2013-01-21 03:40:00,28.0,12.2,30.00,NW,315,14.0,21.0,51,0.00,,SKC,0.00,VWS V13.01,2013-01-21 08:40:00,
2013-01-21 03:50:00,27.8,11.6,30.01,NW,315,12.0,20.0,50,0.00,,SKC,0.00,VWS V13.01,2013-01-21 08:50:00,
2013-01-21 04:00:00,27.6,11.9,30.00,NW,315,11.0,20.0,51,0.00,,SKC,0.00,VWS V13.01,2013-01-21 09:00:00,
2013-01-21 04:10:00,27.6,11.9,30.01,NW,315,12.0,21.0,51,0.00,,SKC,0.00,VWS V13.01,2013-01-21 09:10:00,
2013-01-21 04:20:00,27.5,12.2,30.01,NW,315,11.0,17.0,52,0.00,,SKC,0.00,VWS V13.01,2013-01-21 09:20:00,
2013-01-21 04:30:00,27.2,12.8,30.01,NNW,338,7.0,16.0,54,0.00,,SKC,0.00,VWS V13.01,2013-01-21 09:30:00,
2013-01-21 04:40:00,26.9,13.7,30.01,NNW,338,9.0,14.0,57,0.00,,SKC,0.00,VWS V13.01,2013-01-21 09:40:00,
2013-01-21 04:50:00,26.7,13.5,30.01,NNW,338,10.0,15.0,57,0.00,,SKC,0.00,VWS V13.01,2013-01-21 09:50:00,
2013-01-21 05:00:00,26.7,13.5,30.02,NNW,338,9.0,14.0,57,0.00,,SKC,0.00,VWS V13.01,2013-01-21 10:00:00,
2013-01-21 05:10:00,26.5,13.7,30.02,NNW,338,10.0,15.0,58,0.00,,SKC,0.00,VWS V13.01,2013-01-21 10:10:00,
2013-01-21 05:20:00,26.4,14.0,30.02,NNW,338,11.0,16.0,59,0.00,,SKC,0.00,VWS V13.01,2013-01-21 10:20:00,
2013-01-21 05:30:00,26.3,13.9,30.02,NNW,338,9.0,15.0,59,0.00,,SKC,0.00,VWS V13.01,2013-01-21 10:30:00,
2013-01-21 05:40:00,26.3,13.9,30.02,NNW,338,10.0,15.0,59,0.00,,SKC,0.00,VWS V13.01,2013-01-21 10:40:00,
2013-01-21 05:50:00,26.2,13.8,30.02,NNW,338,10.0,17.0,59,0.00,,SKC,0.00,VWS V13.01,2013-01-21 10:50:00,
2013-01-21 06:00:00,26.2,14.6,30.02,NNW,338,11.0,18.0,61,0.00,,SKC,0.00,VWS V13.01,2013-01-21 11:00:00,
2013-01-21 06:10:00,25.8,14.6,30.03,North,0,11.0,18.0,62,0.00,,SKC,0.00,VWS V13.01,2013-01-21 11:10:00,
2013-01-21 06:20:00,25.6,14.8,30.04,North,0,8.0,15.0,63,0.00,,SKC,0.00,VWS V13.01,2013-01-21 11:20:00,
2013-01-21 06:30:00,25.4,14.6,30.04,North,0,10.0,16.0,63,0.00,,SKC,0.00,VWS V13.01,2013-01-21 11:30:00,
2013-01-21 06:40:00,25.2,14.4,30.04,NNW,338,9.0,13.0,63,0.00,,SKC,0.00,VWS V13.01,2013-01-21 11:40:00,
2013-01-21 06:50:00,25.0,14.6,30.05,NNW,338,9.0,15.0,64,0.00,,SKC,0.00,VWS V13.01,2013-01-21 11:50:00,
2013-01-21 07:00:00,24.8,14.4,30.06,NNW,338,7.0,12.0,64,0.00,,SKC,0.00,VWS V13.01,2013-01-21 12:00:00,
2013-01-21 07:10:00,24.7,14.6,30.06,NNW,338,6.0,10.0,65,0.00,,SKC,0.00,VWS V13.01,2013-01-21 12:10:00,
2013-01-21 07:20:00,24.5,14.1,30.06,NNW,338,7.0,11.0,64,0.00,,SKC,0.00,VWS V13.01,2013-01-21 12:20:00,
2013-01-21 07:30:00,24.6,14.2,30.07,NNW,338,8.0,13.0,64,0.00,,SKC,0.00,VWS V13.01,2013-01-21 12:30:00,
2013-01-21 07:40:00,24.9,14.5,30.08,NNW,338,9.0,13.0,64,0.00,,SKC,0.00,VWS V13.01,2013-01-21 12:40:00,
2013-01-21 07:50:00,25.2,14.8,30.07,NNW,338,9.0,14.0,64,0.00,,SKC,0.00,VWS V13.01,2013-01-21 12:50:00,
2013-01-21 08:00:00,25.4,15.3,30.07,NNW,338,7.0,11.0,65,0.00,,SKC,0.00,VWS V13.01,2013-01-21 13:00:00,
2013-01-21 08:10:00,25.6,15.1,30.07,North,0,8.0,13.0,64,0.00,,SKC,0.00,VWS V13.01,2013-01-21 13:10:00,
2013-01-21 08:20:00,25.8,15.7,30.07,North,0,8.0,13.0,65,0.00,,SKC,0.00,VWS V13.01,2013-01-21 13:20:00,
2013-01-21 08:30:00,26.5,15.6,30.07,North,0,8.0,12.0,63,0.00,,SKC,0.00,VWS V13.01,2013-01-21 13:30:00,
2013-01-21 08:40:00,26.7,15.4,30.07,North,0,9.0,13.0,62,0.00,,SKC,0.00,VWS V13.01,2013-01-21 13:40:00,
2013-01-21 08:50:00,26.6,15.4,30.07,North,0,8.0,11.0,62,0.00,,SKC,0.00,VWS V13.01,2013-01-21 13:50:00,
2013-01-21 09:00:00,27.2,15.9,30.06,NNE,22,9.0,13.0,62,0.00,,SKC,0.00,VWS V13.01,2013-01-21 14:00:00,
2013-01-21 09:10:00,27.9,15.8,30.06,NNE,22,9.0,13.0,60,0.00,,SKC,0.00,VWS V13.01,2013-01-21 14:10:00,
2013-01-21 09:20:00,28.5,15.6,30.07,NNE,22,6.0,11.0,58,0.00,,SKC,0.00,VWS V13.01,2013-01-21 14:20:00,
2013-01-21 09:30:00,28.9,15.6,30.07,NNE,22,5.0,11.0,57,0.00,,SKC,0.00,VWS V13.01,2013-01-21 14:30:00,
2013-01-21 09:40:00,29.2,15.9,30.07,North,0,4.0,9.0,57,0.00,,SKC,0.00,VWS V13.01,2013-01-21 14:40:00,
2013-01-21 09:50:00,29.2,15.9,30.08,North,0,4.0,8.0,57,0.00,,SKC,0.00,VWS V13.01,2013-01-21 14:50:00,
2013-01-21 10:00:00,29.4,15.7,30.08,North,0,4.0,10.0,56,0.00,,SKC,0.00,VWS V13.01,2013-01-21 15:00:00,
2013-01-21 10:10:00,29.6,16.2,30.08,North,0,5.0,10.0,57,0.00,,SKC,0.00,VWS V13.01,2013-01-21 15:10:00,
2013-01-21 10:20:00,29.4,16.1,30.08,North,0,5.0,11.0,57,0.00,,SKC,0.00,VWS V13.01,2013-01-21 15:20:00,
2013-01-21 10:30:00,29.4,16.9,30.07,North,0,6.0,10.0,59,0.00,,SKC,0.00,VWS V13.01,2013-01-21 15:30:00,
2013-01-21 10:40:00,29.6,16.6,30.07,NNE,22,3.0,7.0,58,0.00,,SKC,0.00,VWS V13.01,2013-01-21 15:40:00,
2013-01-21 10:50:00,29.4,16.5,30.06,NNE,22,4.0,8.0,58,0.00,,SKC,0.00,VWS V13.01,2013-01-21 15:50:00,
2013-01-21 11:00:00,29.4,17.2,30.05,NNE,22,4.0,10.0,60,0.00,,SKC,0.00,VWS V13.01,2013-01-21 16:00:00,
2013-01-21 11:10:00,30.0,17.0,30.04,North,0,4.0,9.0,58,0.00,,SKC,0.00,VWS V13.01,2013-01-21 16:10:00,
2013-01-21 11:20:00,29.7,17.1,30.04,North,0,6.0,10.0,59,0.00,,SKC,0.00,VWS V13.01,2013-01-21 16:20:00,
2013-01-21 11:30:00,29.6,17.0,30.03,North,0,2.0,7.0,59,0.00,,SKC,0.00,VWS V13.01,2013-01-21 16:30:00,
2013-01-21 11:40:00,29.4,16.9,30.02,North,0,2.0,6.0,59,0.00,,SKC,0.00,VWS V13.01,2013-01-21 16:40:00,
2013-01-21 11:50:00,29.5,17.0,30.02,North,0,2.0,6.0,59,0.00,,SKC,0.00,VWS V13.01,2013-01-21 16:50:00,
2013-01-21 12:00:00,29.4,16.9,30.01,North,0,0.0,2.0,59,0.00,,SKC,0.00,VWS V13.01,2013-01-21 17:00:00,
2013-01-21 12:10:00,29.5,18.1,30.01,North,0,0.0,2.0,62,0.00,,SKC,0.00,VWS V13.01,2013-01-21 17:10:00,
2013-01-21 12:20:00,30.0,18.6,30.00,NE,45,3.0,7.0,62,0.00,,SKC,0.00,VWS V13.01,2013-01-21 17:20:00,
2013-01-21 12:30:00,30.1,18.3,29.99,SSE,158,4.0,7.0,61,0.00,,SKC,0.00,VWS V13.01,2013-01-21 17:30:00,
2013-01-21 12:40:00,29.9,18.5,29.99,ENE,68,3.0,7.0,62,0.00,,SKC,0.00,VWS V13.01,2013-01-21 17:40:00,
2013-01-21 12:50:00,29.2,18.9,29.98,ENE,68,1.0,5.0,65,0.00,,SKC,0.00,VWS V13.01,2013-01-21 17:50:00,
2013-01-21 13:10:00,28.8,18.2,29.97,East,90,3.0,7.0,64,0.00,,SKC,0.00,VWS V13.01,2013-01-21 18:10:00,
2013-01-21 13:20:00,28.9,19.0,29.97,East,90,3.0,5.0,66,0.00,,SKC,0.00,VWS V13.01,2013-01-21 18:20:00,
2013-01-21 13:30:00,28.8,19.6,29.97,East,90,3.0,5.0,68,0.00,,SKC,0.00,VWS V13.01,2013-01-21 18:30:00,
2013-01-21 13:40:00,28.7,18.8,29.96,East,90,2.0,6.0,66,0.00,,SKC,0.00,VWS V13.01,2013-01-21 18:40:00,
2013-01-21 13:50:00,28.5,19.0,29.96,East,90,3.0,7.0,67,0.00,,SKC,0.00,VWS V13.01,2013-01-21 18:50:00,
2013-01-21 14:00:00,28.6,19.7,29.96,East,90,4.0,7.0,69,0.00,,SKC,0.00,VWS V13.01,2013-01-21 19:00:00,
2013-01-21 14:10:00,28.8,20.3,29.95,East,90,5.0,12.0,70,0.00,,SKC,0.00,VWS V13.01,2013-01-21 19:10:00,
2013-01-21 14:20:00,28.7,20.8,29.96,SE,135,6.0,10.0,72,0.00,,SKC,0.00,VWS V13.01,2013-01-21 19:20:00,
2013-01-21 14:30:00,28.7,21.8,29.95,SSE,158,2.0,6.0,75,0.00,,SKC,0.00,VWS V13.01,2013-01-21 19:30:00,
2013-01-21 14:40:00,28.9,22.6,29.95,SSE,158,4.0,10.0,77,0.00,,SKC,0.00,VWS V13.01,2013-01-21 19:40:00,
2013-01-21 14:50:00,28.8,24.0,29.95,SSE,158,6.0,10.0,82,0.00,,SKC,0.00,VWS V13.01,2013-01-21 19:50:00,
2013-01-21 15:00:00,28.3,24.1,29.94,SSE,158,5.0,9.0,84,0.00,,SKC,0.00,VWS V13.01,2013-01-21 20:00:00,
2013-01-21 15:10:00,28.1,24.5,29.94,SSE,158,4.0,10.0,86,0.00,,SKC,0.00,VWS V13.01,2013-01-21 20:10:00,
2013-01-21 15:20:00,28.1,25.0,29.93,SSE,158,6.0,11.0,88,0.00,,SKC,0.00,VWS V13.01,2013-01-21 20:20:00,
2013-01-21 15:30:00,28.1,25.3,29.93,SSE,158,4.0,9.0,89,0.00,,SKC,0.00,VWS V13.01,2013-01-21 20:30:00,
2013-01-21 15:40:00,28.3,25.8,29.92,SSE,158,4.0,6.0,90,0.00,,SKC,0.00,VWS V13.01,2013-01-21 20:40:00,
2013-01-21 15:50:00,28.6,26.3,29.92,SSE,158,5.0,9.0,91,0.00,,SKC,0.00,VWS V13.01,2013-01-21 20:50:00,
2013-01-21 16:00:00,28.9,26.9,29.91,SSE,158,5.0,10.0,92,0.01,,SKC,0.01,VWS V13.01,2013-01-21 21:00:00,
2013-01-21 16:10:00,29.2,27.4,29.91,SSE,158,6.0,9.0,93,0.01,,SKC,0.01,VWS V13.01,2013-01-21 21:10:00,
2013-01-21 16:20:00,29.3,27.5,29.89,SSE,158,6.0,11.0,93,0.01,,SKC,0.01,VWS V13.01,2013-01-21 21:20:00,
2013-01-21 16:30:00,29.6,27.8,29.89,SSE,158,5.0,9.0,93,0.01,,SKC,0.01,VWS V13.01,2013-01-21 21:30:00,
2013-01-21 16:40:00,29.3,27.5,29.89,South,180,5.0,7.0,93,0.01,,SKC,0.01,VWS V13.01,2013-01-21 21:40:00,
2013-01-21 16:50:00,29.2,27.4,29.89,South,180,4.0,7.0,93,0.01,,SKC,0.01,VWS V13.01,2013-01-21 21:50:00,
2013-01-21 17:00:00,29.1,27.3,29.89,South,180,3.0,4.0,93,0.02,,SKC,0.02,VWS V13.01,2013-01-21 22:00:00,
2013-01-21 17:10:00,29.3,27.5,29.88,South,180,1.0,3.0,93,0.01,,SKC,0.02,VWS V13.01,2013-01-21 22:10:00,
2013-01-21 17:20:00,29.2,27.4,29.88,South,180,1.0,4.0,93,0.02,,SKC,0.03,VWS V13.01,2013-01-21 22:20:00,
2013-01-21 17:30:00,29.2,27.4,29.88,South,180,1.0,3.0,93,0.02,,SKC,0.03,VWS V13.01,2013-01-21 22:30:00,
2013-01-21 17:40:00,29.2,27.7,29.88,South,180,0.0,3.0,94,0.03,,SKC,0.04,VWS V13.01,2013-01-21 22:40:00,
2013-01-21 17:50:00,29.3,27.8,29.87,South,180,1.0,2.0,94,0.04,,SKC,0.05,VWS V13.01,2013-01-21 22:50:00,
2013-01-21 18:00:00,29.2,27.7,29.87,South,180,2.0,4.0,94,0.04,,SKC,0.05,VWS V13.01,2013-01-21 23:00:00,
2013-01-21 18:10:00,29.2,27.7,29.88,South,180,2.0,4.0,94,0.04,,SKC,0.06,VWS V13.01,2013-01-21 23:10:00,
2013-01-21 18:20:00,29.3,27.8,29.87,South,180,2.0,4.0,94,0.05,,SKC,0.07,VWS V13.01,2013-01-21 23:20:00,
2013-01-21 18:30:00,29.9,28.6,29.87,SSW,202,5.0,10.0,95,0.04,,SKC,0.07,VWS V13.01,2013-01-21 23:30:00,
2013-01-21 18:40:00,30.0,28.5,29.87,West,270,6.0,10.0,94,0.05,,SKC,0.08,VWS V13.01,2013-01-21 23:40:00,
2013-01-21 18:50:00,29.8,28.3,29.87,West,270,5.0,10.0,94,0.04,,SKC,0.08,VWS V13.01,2013-01-21 23:50:00,
2013-01-21 19:00:00,29.8,28.3,29.86,West,270,4.0,9.0,94,0.03,,SKC,0.08,VWS V13.01,2013-01-22 00:00:00,
2013-01-21 19:10:00,29.8,28.3,29.86,West,270,3.0,6.0,94,0.03,,SKC,0.08,VWS V13.01,2013-01-22 00:10:00,
2013-01-21 19:30:00,29.9,28.4,29.85,West,270,2.0,5.0,94,0.02,,SKC,0.09,VWS V13.01,2013-01-22 00:30:00,
2013-01-21 19:40:00,30.0,28.7,29.85,West,270,1.0,4.0,95,0.02,,SKC,0.09,VWS V13.01,2013-01-22 00:40:00,
2013-01-21 19:50:00,30.1,28.8,29.85,West,270,2.0,5.0,95,0.02,,SKC,0.10,VWS V13.01,2013-01-22 00:50:00,
2013-01-21 20:00:00,30.2,28.9,29.85,West,270,2.0,4.0,95,0.03,,SKC,0.11,VWS V13.01,2013-01-22 01:00:00,
2013-01-21 20:10:00,30.3,29.0,29.84,West,270,2.0,5.0,95,0.04,,SKC,0.12,VWS V13.01,2013-01-22 01:10:00,
2013-01-21 20:20:00,30.3,29.0,29.83,West,270,3.0,6.0,95,0.05,,SKC,0.13,VWS V13.01,2013-01-22 01:20:00,
2013-01-21 20:30:00,30.2,28.9,29.83,West,270,3.0,5.0,95,0.04,,SKC,0.13,VWS V13.01,2013-01-22 01:30:00,
2013-01-21 20:40:00,30.2,28.9,29.82,West,270,3.0,5.0,95,0.05,,SKC,0.14,VWS V13.01,2013-01-22 01:40:00,
2013-01-21 20:50:00,30.2,28.9,29.81,West,270,3.0,5.0,95,0.05,,SKC,0.14,VWS V13.01,2013-01-22 01:50:00,
2013-01-21 21:00:00,30.4,29.1,29.80,West,270,4.0,9.0,95,0.04,,SKC,0.14,VWS V13.01,2013-01-22 02:00:00,
2013-01-21 21:10:00,30.5,29.2,29.81,NW,315,6.0,11.0,95,0.03,,SKC,0.14,VWS V13.01,2013-01-22 02:10:00,
2013-01-21 21:20:00,30.4,29.1,29.80,NW,315,7.0,12.0,95,0.02,,SKC,0.14,VWS V13.01,2013-01-22 02:20:00,
2013-01-21 21:30:00,30.1,28.8,29.80,NW,315,8.0,14.0,95,0.01,,SKC,0.14,VWS V13.01,2013-01-22 02:30:00,
2013-01-21 21:40:00,29.9,28.6,29.79,NW,315,7.0,14.0,95,0.02,,SKC,0.15,VWS V13.01,2013-01-22 02:40:00,
2013-01-21 21:50:00,29.8,28.5,29.79,NNW,338,10.0,15.0,95,0.02,,SKC,0.16,VWS V13.01,2013-01-22 02:50:00,
2013-01-21 22:00:00,29.5,28.2,29.79,NNW,338,11.0,17.0,95,0.02,,SKC,0.16,VWS V13.01,2013-01-22 03:00:00,
2013-01-21 22:10:00,28.3,27.0,29.79,NW,315,13.0,20.0,95,0.02,,SKC,0.16,VWS V13.01,2013-01-22 03:10:00,
2013-01-21 22:30:00,27.7,26.5,29.78,NNW,338,9.0,14.0,95,0.02,,SKC,0.16,VWS V13.01,2013-01-22 03:30:00,
2013-01-21 22:40:00,27.3,26.1,29.78,NW,315,10.0,16.0,95,0.04,,SKC,0.18,VWS V13.01,2013-01-22 03:40:00,
2013-01-21 22:50:00,27.1,25.9,29.76,NW,315,9.0,16.0,95,0.05,,SKC,0.20,VWS V13.01,2013-01-22 03:50:00,
2013-01-21 23:00:00,27.2,26.0,29.76,NNW,338,7.0,12.0,95,0.05,,SKC,0.21,VWS V13.01,2013-01-22 04:00:00,
2013-01-21 23:10:00,27.2,26.0,29.76,NNW,338,7.0,12.0,95,0.05,,SKC,0.21,VWS V13.01,2013-01-22 04:10:00,
2013-01-21 23:20:00,27.3,26.1,29.75,NW,315,7.0,13.0,95,0.06,,SKC,0.22,VWS V13.01,2013-01-22 04:20:00,
2013-01-21 23:30:00,27.0,25.5,29.76,NW,315,11.0,17.0,94,0.06,,SKC,0.22,VWS V13.01,2013-01-22 04:30:00,
2013-01-21 23:40:00,26.9,25.4,29.75,NW,315,9.0,13.0,94,0.06,,SKC,0.22,VWS V13.01,2013-01-22 04:40:00,
2013-01-21 23:50:00,26.9,25.4,29.75,NW,315,8.0,14.0,94,0.05,,SKC,0.23,VWS V13.01,2013-01-22 04:50:00,